Time;durP1;ratioP1;P1;durP2;ratioP2;P2;SDS_P1;SDS_P2;PMS_P1;PMS_P2;Temp;Humidity;BMP_temperature;BMP_pressure;BME280_temperature;BME280_humidity;BME280_pressure;Samples;Min_cycle;Max_cycle;Signal;HPM_P1;HPM_P2
2022/11/13 14:45:15;;;;;;;20.42;14.35;;;;;;;10.81;100.00;102135.84;4928737;28;20807;-73
2022/11/13 14:47:41;;;;;;;18.15;13.20;;;;;;;10.97;100.00;102128.38;4937282;28;20075;-73
2022/11/13 14:50:31;;;;;;;20.90;14.27;;;;;;;10.87;100.00;102132.47;4943186;28;20501;-73
2022/11/13 14:55:31;;;;;;;26.27;15.98;;;;;;;10.50;100.00;102121.22;4987703;23;20093;-73
2022/11/13 14:57:57;;;;;;;25.27;16.35;;;;;;;10.40;100.00;102116.06;4956498;28;20114;-73
2022/11/13 15:00:34;;;;;;;18.15;14.10;;;;;;;10.28;100.00;102114.03;4953820;28;20089;-72
2022/11/13 15:03:02;;;;;;;20.33;13.25;;;;;;;10.31;100.00;102112.56;4960962;28;20509;-73
2022/11/13 15:05:28;;;;;;;19.60;14.50;;;;;;;10.17;100.00;102107.22;4946462;28;20517;-74
2022/11/13 15:07:55;;;;;;;20.63;15.93;;;;;;;10.10;100.00;102105.00;4956531;28;20114;-73
2022/11/13 15:10:24;;;;;;;24.40;16.10;;;;;;;10.08;100.00;102107.34;4951481;28;22189;-73
2022/11/13 15:12:49;;;;;;;33.58;20.83;;;;;;;10.02;100.00;102105.09;4957801;28;20031;-76
2022/11/13 15:15:20;;;;;;;55.58;34.28;;;;;;;9.95;100.00;102105.63;4958891;28;20035;-73
2022/11/13 15:17:47;;;;;;;43.20;27.75;;;;;;;9.92;100.00;102109.13;4961233;28;20043;-73
2022/11/13 15:20:20;;;;;;;39.40;23.20;;;;;;;9.87;100.00;102104.56;4962872;28;20625;-73
2022/11/13 15:22:45;;;;;;;32.03;20.05;;;;;;;9.84;100.00;102108.03;4958281;28;20513;-73
2022/11/13 15:25:13;;;;;;;22.33;15.43;;;;;;;9.84;100.00;102105.25;4962332;28;20023;-73
2022/11/13 15:27:39;;;;;;;22.77;14.95;;;;;;;9.82;100.00;102087.97;4961211;28;20030;-73
2022/11/13 15:30:04;;;;;;;20.10;14.35;;;;;;;9.81;100.00;102094.75;4960665;28;20023;-73
2022/11/13 15:32:30;;;;;;;20.98;14.60;;;;;;;9.78;100.00;102089.84;4953752;28;20035;-72
2022/11/13 15:34:55;;;;;;;24.95;15.32;;;;;;;9.75;100.00;102084.94;4957346;28;20046;-72
2022/11/13 15:37:20;;;;;;;20.48;14.75;;;;;;;9.71;100.00;102084.78;4957284;28;20031;-72
2022/11/13 15:39:46;;;;;;;20.48;14.57;;;;;;;9.68;100.00;102081.88;4951405;28;20073;-72
2022/11/13 15:42:16;;;;;;;22.73;14.30;;;;;;;9.67;100.00;102088.63;4955666;28;20073;-73
2022/11/13 15:44:42;;;;;;;22.17;14.15;;;;;;;9.62;100.00;102080.47;4940818;28;20034;-72
2022/11/13 15:47:25;;;;;;;19.95;13.60;;;;;;;9.59;100.00;102076.34;4937001;28;20054;-73
2022/11/13 15:49:50;;;;;;;;;;;;;;;9.54;100.00;102076.56;4940904;28;20039;-72
2022/11/13 15:52:16;;;;;;;20.80;13.93;;;;;;;9.50;100.00;102065.25;4941267;28;20374;-73
2022/11/13 15:54:41;;;;;;;22.10;14.27;;;;;;;9.48;100.00;102072.34;4944664;28;20051;-72
2022/11/13 15:57:30;;;;;;;17.50;13.07;;;;;;;9.43;100.00;102066.97;4939794;28;20054;-72
2022/11/13 15:59:55;;;;;;;19.40;14.70;;;;;;;9.39;100.00;102063.22;4944924;28;20069;-72
2022/11/13 16:02:21;;;;;;;19.08;13.25;;;;;;;9.34;100.00;102064.25;4927204;29;20156;-72
2022/11/13 16:04:47;;;;;;;18.80;13.90;;;;;;;9.32;100.00;102063.78;4942236;28;20086;-72
2022/11/13 16:07:16;;;;;;;17.73;13.02;;;;;;;9.28;100.00;102068.41;4933982;29;20487;-72
2022/11/13 16:09:42;;;;;;;19.38;13.38;;;;;;;9.25;100.00;102060.69;4922299;28;20041;-73
2022/11/13 16:12:12;;;;;;;18.73;13.73;;;;;;;9.23;100.00;102057.41;4942921;28;20015;-73
2022/11/13 16:14:37;;;;;;;21.55;13.65;;;;;;;9.19;100.00;102064.84;4939389;28;20500;-73
2022/11/13 16:17:10;;;;;;;17.58;13.23;;;;;;;9.15;100.00;102065.53;4939962;28;20043;-73
2022/11/13 16:19:36;;;;;;;17.70;13.52;;;;;;;9.09;100.00;102046.50;4937886;28;20442;-72
2022/11/13 16:22:04;;;;;;;21.05;14.15;;;;;;;9.09;100.00;102052.91;4938358;28;20133;-72
2022/11/13 16:24:29;;;;;;;18.63;14.20;;;;;;;9.06;100.00;102048.00;4941615;28;20034;-73
2022/11/13 16:26:56;;;;;;;21.23;15.38;;;;;;;9.02;100.00;102047.03;4942353;29;20039;-72
2022/11/13 16:29:23;;;;;;;18.52;14.23;;;;;;;9.00;100.00;102052.13;4942122;28;20038;-73
2022/11/13 16:31:49;;;;;;;18.98;14.30;;;;;;;8.97;100.00;102054.81;4943728;28;20126;-72
2022/11/13 16:34:14;;;;;;;17.95;13.77;;;;;;;8.91;100.00;102048.59;4937262;28;20452;-72
2022/11/13 16:36:40;;;;;;;18.88;14.00;;;;;;;8.87;100.00;102051.22;4936882;28;20601;-74
2022/11/13 16:39:15;;;;;;;16.77;13.48;;;;;;;8.88;100.00;102044.50;4942745;28;20035;-73
2022/11/13 16:41:41;;;;;;;21.02;14.10;;;;;;;8.87;100.00;102044.84;4919667;28;20023;-73
2022/11/13 16:44:06;;;;;;;16.48;13.05;;;;;;;8.83;100.00;102038.28;4935506;28;20070;-73
2022/11/13 16:46:34;;;;;;;19.60;13.43;;;;;;;8.78;100.00;102039.31;4943086;28;20130;-73
2022/11/13 16:48:59;;;;;;;18.50;13.68;;;;;;;8.79;100.00;102027.00;4943593;28;20094;-75
2022/11/13 16:51:25;;;;;;;18.48;13.77;;;;;;;8.76;100.00;102027.66;4932177;28;20359;-72
2022/11/13 16:53:51;;;;;;;16.92;12.85;;;;;;;8.71;100.00;102020.31;4938180;28;20541;-72
2022/11/13 16:56:23;;;;;;;18.55;13.02;;;;;;;8.69;100.00;102021.81;4937444;28;20043;-72
2022/11/13 16:58:49;;;;;;;18.05;14.07;;;;;;;8.65;100.00;102016.06;4935964;28;20043;-72
2022/11/13 17:01:16;;;;;;;19.63;14.10;;;;;;;8.64;100.00;102013.59;4933851;28;20040;-72
2022/11/13 17:03:42;;;;;;;17.95;14.38;;;;;;;8.60;100.00;102005.09;4936571;28;20039;-72
2022/11/13 17:06:17;;;;;;;18.42;15.20;;;;;;;8.57;100.00;102002.97;4939076;28;20517;-72
2022/11/13 17:08:42;;;;;;;19.40;15.88;;;;;;;8.54;100.00;101998.06;4938782;28;20554;-72
2022/11/13 17:11:10;;;;;;;19.55;16.70;;;;;;;8.50;100.00;101997.13;4937709;28;20463;-72
2022/11/13 17:13:35;;;;;;;20.80;16.27;;;;;;;8.48;100.00;101985.47;4936237;28;22447;-72
2022/11/13 17:16:01;;;;;;;21.15;15.27;;;;;;;8.50;100.00;101997.94;4921848;28;20364;-74
2022/11/13 17:18:26;;;;;;;18.70;15.05;;;;;;;8.45;100.00;101983.34;4916560;29;20039;-72
2022/11/13 17:20:51;;;;;;;21.17;16.92;;;;;;;8.43;100.00;101974.47;4934150;28;20077;-75
2022/11/13 17:23:16;;;;;;;19.40;14.98;;;;;;;8.36;100.00;101969.41;4935555;28;20671;-74
2022/11/13 17:25:42;;;;;;;23.95;15.75;;;;;;;8.38;100.00;101974.66;4937104;28;21209;-74
2022/11/13 17:28:07;;;;;;;23.90;15.93;;;;;;;8.26;100.00;101967.00;4935617;28;20082;-73
2022/11/13 17:30:32;;;;;;;18.35;13.30;;;;;;;8.17;100.00;101966.22;4932259;28;20112;-73
2022/11/13 17:32:58;;;;;;;20.35;14.98;;;;;;;8.08;100.00;101966.25;4937316;28;20035;-73
2022/11/13 17:35:23;;;;;;;19.13;14.15;;;;;;;8.05;100.00;101962.19;4936907;28;20399;-73
2022/11/13 17:37:48;;;;;;;21.02;14.25;;;;;;;7.95;100.00;101962.53;4940558;28;20114;-74
2022/11/13 17:40:14;;;;;;;19.58;13.48;;;;;;;7.88;97.78;101965.81;4940126;28;20043;-74
2022/11/13 17:42:40;;;;;;;15.63;11.80;;;;;;;7.88;97.08;101968.59;4932651;28;20039;-74
2022/11/13 17:45:06;;;;;;;17.08;11.88;;;;;;;7.88;98.27;101965.81;4939151;28;20035;-74
2022/11/13 17:47:33;;;;;;;18.33;13.93;;;;;;;7.84;98.26;101970.44;4934911;28;20063;-75
2022/11/13 17:49:58;;;;;;;18.10;11.93;;;;;;;7.82;97.82;101961.59;4940743;28;20122;-74
2022/11/13 17:52:23;;;;;;;15.43;10.98;;;;;;;7.90;98.15;101966.31;4934100;28;20036;-74
2022/11/13 17:54:49;;;;;;;16.50;11.35;;;;;;;7.82;96.55;101966.34;4936884;28;20054;-74
2022/11/13 17:57:14;;;;;;;14.88;10.65;;;;;;;7.93;97.37;101968.44;4939311;28;20467;-74
2022/11/13 17:59:40;;;;;;;23.27;13.50;;;;;;;7.82;95.81;101966.34;4941554;28;20023;-73
2022/11/13 18:02:07;;;;;;;16.05;12.27;;;;;;;7.82;95.00;101972.75;4938791;28;20031;-73
2022/11/13 18:04:32;;;;;;;16.17;12.63;;;;;;;7.86;96.58;101965.38;4940742;28;20495;-74
2022/11/13 18:06:57;;;;;;;19.58;11.38;;;;;;;7.91;96.02;101965.16;4937655;28;20114;-74
2022/11/13 18:09:23;;;;;;;16.23;12.13;;;;;;;7.86;96.09;101968.16;4938023;28;20035;-74
2022/11/13 18:11:48;;;;;;;14.52;12.13;;;;;;;7.78;95.43;101963.41;4923761;29;20032;-74
2022/11/13 18:14:13;;;;;;;19.63;12.25;;;;;;;7.75;95.60;101978.00;4937559;28;20032;-74
2022/11/13 18:16:39;;;;;;;20.13;13.82;;;;;;;7.88;96.71;101968.59;4923037;29;20414;-73
2022/11/13 18:19:05;;;;;;;19.45;13.77;;;;;;;8.01;98.27;101966.78;4948131;28;20059;-75
2022/11/13 18:21:33;;;;;;;18.55;13.00;;;;;;;8.03;97.36;101961.69;4944151;28;20094;-74
2022/11/13 18:24:19;;;;;;;18.75;12.80;;;;;;;8.00;98.19;101967.13;4937278;28;20035;-73
2022/11/13 18:26:44;;;;;;;20.05;12.68;;;;;;;8.00;96.82;101967.13;4937493;28;20043;-74
2022/11/13 18:29:10;;;;;;;18.77;13.05;;;;;;;8.02;98.60;101964.81;4936135;28;20038;-74
2022/11/13 18:31:35;;;;;;;17.42;14.07;;;;;;;8.05;98.91;101958.56;4923002;29;20771;-74
2022/11/13 18:34:05;;;;;;;21.20;14.45;;;;;;;8.00;97.82;101967.13;4939170;28;20035;-73
2022/11/13 18:36:33;;;;;;;15.45;12.02;;;;;;;8.06;99.24;101958.22;4939420;28;20467;-74
2022/11/13 18:39:01;;;;;;;17.33;12.43;;;;;;;8.06;99.29;101954.63;4940821;28;20106;-74
2022/11/13 18:41:27;;;;;;;17.77;13.00;;;;;;;8.02;99.07;101953.66;4923036;29;20126;-73
2022/11/13 18:43:53;;;;;;;20.58;14.40;;;;;;;8.02;98.51;101948.06;4915838;28;20043;-73
2022/11/13 18:46:20;;;;;;;23.30;14.88;;;;;;;8.00;98.42;101953.16;4942234;28;20054;-74
2022/11/13 18:48:46;;;;;;;22.65;14.18;;;;;;;8.00;98.35;101948.41;4936709;28;20498;-74
2022/11/13 18:51:24;;;;;;;22.15;14.70;;;;;;;7.96;98.42;101957.78;4935033;28;20035;-73
2022/11/13 18:53:50;;;;;;;23.70;15.55;;;;;;;7.91;98.25;101958.78;4934109;28;20044;-74
2022/11/13 18:56:24;;;;;;;27.23;16.27;;;;;;;7.93;98.06;101962.06;4934113;28;20039;-73
2022/11/13 18:58:51;;;;;;;27.17;17.05;;;;;;;7.88;97.90;101953.84;4938232;28;20031;-74
2022/11/13 19:01:23;;;;;;;29.40;18.95;;;;;;;7.82;97.81;101956.03;4940912;28;20027;-73
2022/11/13 19:03:53;;;;;;;28.27;20.05;;;;;;;7.83;98.63;101954.06;4936964;28;20042;-74
2022/11/13 19:06:21;;;;;;;28.85;18.13;;;;;;;7.76;98.06;101962.94;4935184;28;20031;-75
2022/11/13 19:08:52;;;;;;;26.58;18.63;;;;;;;7.69;97.99;101952.25;4938696;28;20064;-74
2022/11/13 19:11:18;;;;;;;28.23;19.27;;;;;;;7.68;97.74;101950.66;4940727;28;20101;-74
2022/11/13 19:13:45;;;;;;;31.88;19.75;;;;;;;7.67;98.45;101948.19;4934237;28;20494;-74
2022/11/13 19:16:17;;;;;;;34.22;19.48;;;;;;;7.61;97.97;101944.78;4942700;28;20027;-74
2022/11/13 19:18:48;;;;;;;38.90;20.95;;;;;;;7.66;98.06;101946.56;4936519;28;20070;-74
2022/11/13 19:21:15;;;;;;;29.27;19.38;;;;;;;7.57;97.03;101948.53;4938434;28;20125;-74
2022/11/13 19:23:41;;;;;;;29.33;19.35;;;;;;;7.56;98.17;101941.34;4938157;28;20502;-74
2022/11/13 19:26:07;;;;;;;30.95;20.27;;;;;;;7.54;97.87;101945.25;4940777;28;20074;-74
2022/11/13 19:28:34;;;;;;;28.63;19.45;;;;;;;7.50;97.82;101927.56;4935258;28;20495;-74
2022/11/13 19:31:00;;;;;;;29.77;20.50;;;;;;;7.45;97.81;101924.97;4939534;28;20043;-74
2022/11/13 19:33:27;;;;;;;27.90;19.38;;;;;;;7.44;97.95;101917.78;4938879;28;20046;-74
2022/11/13 19:35:54;;;;;;;26.33;19.10;;;;;;;7.43;98.40;101926.44;4941320;28;20039;-74
2022/11/13 19:38:20;;;;;;;30.08;20.00;;;;;;;7.38;98.08;101919.09;4937025;28;20652;-74
2022/11/13 19:40:51;;;;;;;32.28;20.48;;;;;;;7.33;97.70;101922.03;4930216;28;20491;-74
2022/11/13 19:43:16;;;;;;;26.63;18.95;;;;;;;7.30;97.60;101919.91;4928136;28;20114;-75
2022/11/13 19:45:42;;;;;;;28.95;17.50;;;;;;;7.30;97.94;101914.34;4939951;28;20023;-75
2022/11/13 19:48:10;;;;;;;30.90;20.08;;;;;;;7.32;97.76;101914.84;4935666;28;20031;-74
2022/11/13 19:50:36;;;;;;;26.65;18.70;;;;;;;7.31;97.84;101905.66;4935142;28;20031;-74
2022/11/13 19:53:01;;;;;;;32.78;21.60;;;;;;;7.26;97.78;101902.25;4933505;28;20038;-75
2022/11/13 19:55:27;;;;;;;29.80;19.75;;;;;;;7.19;98.28;101899.13;4936301;28;20695;-75
2022/11/13 19:57:53;;;;;;;30.48;19.30;;;;;;;7.22;98.45;101899.28;4918222;28;20035;-74
2022/11/13 20:00:18;;;;;;;31.30;20.40;;;;;;;7.15;98.10;101901.75;4917621;28;20023;-74
2022/11/13 20:02:43;;;;;;;24.73;18.15;;;;;;;7.10;98.99;101901.91;4939200;28;20091;-74
2022/11/13 20:05:09;;;;;;;28.52;18.52;;;;;;;7.08;99.77;101905.06;4939070;28;20149;-74
2022/11/13 20:07:35;;;;;;;26.45;17.02;;;;;;;7.16;99.58;101894.22;4938316;28;20055;-75
2022/11/13 20:10:01;;;;;;;29.25;18.55;;;;;;;7.08;99.80;101893.91;4937472;28;20097;-74
2022/11/13 20:12:28;;;;;;;28.15;17.25;;;;;;;7.08;100.00;101893.06;4916809;28;20495;-75
2022/11/13 20:14:54;;;;;;;30.85;19.35;;;;;;;6.96;100.00;101896.53;4939723;28;20134;-75
2022/11/13 20:17:19;;;;;;;40.28;19.60;;;;;;;7.24;100.00;101894.22;4938647;28;20110;-74
2022/11/13 20:19:44;;;;;;;40.50;19.88;;;;;;;7.18;99.99;101898.31;4918920;29;20124;-74
2022/11/13 20:22:10;;;;;;;34.10;18.77;;;;;;;6.98;100.00;101891.47;4918729;29;20023;-74
2022/11/13 20:24:35;;;;;;;33.55;19.55;;;;;;;7.08;100.00;101880.00;4939279;28;20038;-73
2022/11/13 20:27:00;;;;;;;29.60;20.15;;;;;;;6.86;99.98;101880.97;4936280;28;20106;-75
2022/11/13 20:29:25;;;;;;;33.58;21.05;;;;;;;6.91;99.65;101882.78;4933094;29;20031;-74
2022/11/13 20:31:51;;;;;;;31.45;18.48;;;;;;;6.71;100.00;101873.94;4941636;29;20063;-74
2022/11/13 20:34:16;;;;;;;29.95;20.60;;;;;;;6.47;100.00;101879.16;4935301;28;20034;-73
2022/11/13 20:36:42;;;;;;;30.75;19.75;;;;;;;6.81;100.00;101871.97;4935670;28;20031;-74
2022/11/13 20:39:07;;;;;;;27.48;18.23;;;;;;;6.70;100.00;101869.53;4944042;29;20123;-74
2022/11/13 20:41:34;;;;;;;30.23;19.27;;;;;;;6.46;100.00;101860.84;4940235;29;20027;-73
2022/11/13 20:44:01;;;;;;;27.92;17.52;;;;;;;6.59;100.00;101859.06;4936285;28;20042;-74
2022/11/13 20:46:27;;;;;;;32.80;20.05;;;;;;;6.57;100.00;101864.13;4938172;28;20040;-73
2022/11/13 20:48:52;;;;;;;58.13;33.80;;;;;;;6.50;100.00;101865.44;4939915;29;20573;-74
2022/11/13 20:51:23;;;;;;;34.47;18.33;;;;;;;6.65;100.00;101864.13;4937936;28;20031;-74
2022/11/13 20:53:49;;;;;;;31.40;18.30;;;;;;;6.55;100.00;101864.44;4938952;28;20167;-73
2022/11/13 20:56:15;;;;;;;33.03;19.27;;;;;;;6.77;100.00;101857.91;4943830;28;20089;-74
2022/11/13 20:58:42;;;;;;;29.15;18.35;;;;;;;6.48;100.00;101864.13;4940279;29;20050;-74
2022/11/13 21:01:10;;;;;;;32.80;19.10;;;;;;;6.46;100.00;101855.28;4925206;29;20035;-74
2022/11/13 21:03:40;;;;;;;30.85;18.08;;;;;;;6.43;100.00;101851.19;4921170;29;20024;-74
2022/11/13 21:06:11;;;;;;;28.90;18.15;;;;;;;6.61;100.00;101854.78;4935317;29;20031;-74
2022/11/13 21:08:37;;;;;;;28.42;19.00;;;;;;;6.61;100.00;101849.22;4941330;29;20035;-74
2022/11/13 21:11:04;;;;;;;32.67;19.63;;;;;;;6.21;100.00;101846.56;4938177;28;20383;-74
2022/11/13 21:13:30;;;;;;;33.50;19.95;;;;;;;6.24;100.00;101848.72;4945451;29;20042;-74
2022/11/13 21:15:55;;;;;;;30.00;17.30;;;;;;;6.50;100.00;101848.75;4943466;28;20523;-73
2022/11/13 21:18:21;;;;;;;37.20;23.13;;;;;;;6.42;100.00;101848.72;4938290;28;20049;-73
2022/11/13 21:20:46;;;;;;;31.85;20.13;;;;;;;6.20;100.00;101852.44;4921656;28;20059;-73
2022/11/13 21:23:12;;;;;;;33.58;19.75;;;;;;;6.45;100.00;101853.63;4945600;29;20077;-73
2022/11/13 21:25:38;;;;;;;35.53;18.65;;;;;;;6.23;100.00;101855.41;4938309;29;20576;-73
2022/11/13 21:28:03;;;;;;;37.92;21.75;;;;;;;5.81;100.00;101845.78;4944341;28;20070;-74
2022/11/13 21:30:28;;;;;;;34.13;20.77;;;;;;;6.20;100.00;101847.72;4944045;28;20038;-74
2022/11/13 21:32:57;;;;;;;35.15;21.55;;;;;;;5.94;100.00;101846.81;4918564;29;20022;-73
2022/11/13 21:35:22;;;;;;;39.47;22.20;;;;;;;5.90;100.00;101850.25;4944783;28;20043;-73
2022/11/13 21:37:48;;;;;;;39.83;22.55;;;;;;;5.73;100.00;101847.38;4940724;28;20050;-74
2022/11/13 21:40:14;;;;;;;41.50;22.30;;;;;;;6.03;100.00;101859.63;4937781;29;20402;-74
2022/11/13 21:42:39;;;;;;;39.75;21.70;;;;;;;5.68;100.00;101842.81;4942474;28;20027;-73
2022/11/13 21:45:05;;;;;;;43.40;23.83;;;;;;;5.72;100.00;101853.28;4936973;28;20537;-74
2022/11/13 21:47:30;;;;;;;38.83;21.65;;;;;;;5.93;100.00;101850.75;4937146;28;20499;-74
2022/11/13 21:49:55;;;;;;;39.40;22.80;;;;;;;6.03;100.00;101829.06;4924072;29;20046;-74
2022/11/13 21:52:21;;;;;;;48.28;26.88;;;;;;;5.86;100.00;101835.38;4940008;28;20487;-74
2022/11/13 21:54:46;;;;;;;48.38;26.75;;;;;;;5.62;100.00;101835.75;4937250;29;20043;-74
2022/11/13 21:57:13;;;;;;;43.90;24.83;;;;;;;5.96;100.00;101837.03;4941033;29;20078;-74
2022/11/13 21:59:38;;;;;;;39.47;23.35;;;;;;;6.01;100.00;101833.28;4936590;29;20028;-74
2022/11/13 22:02:03;;;;;;;52.20;26.42;;;;;;;6.05;100.00;101834.28;4940775;29;20094;-76
2022/11/13 22:04:29;;;;;;;51.40;27.25;;;;;;;5.50;100.00;101839.16;4919492;29;20037;-74
2022/11/13 22:06:54;;;;;;;55.58;27.88;;;;;;;5.75;100.00;101839.56;4939062;28;20479;-74
2022/11/13 22:09:24;;;;;;;64.88;30.45;;;;;;;5.62;100.00;101827.41;4941503;29;20384;-74
2022/11/13 22:11:50;;;;;;;67.97;32.65;;;;;;;5.47;100.00;101825.88;4946925;29;20035;-74
2022/11/13 22:14:16;;;;;;;70.05;33.05;;;;;;;5.50;100.00;101822.50;4949926;28;20470;-74
2022/11/13 22:16:43;;;;;;;69.50;31.55;;;;;;;5.32;100.00;101829.09;4952316;28;20042;-74
2022/11/13 22:19:12;;;;;;;71.93;31.85;;;;;;;5.32;100.00;101829.09;4951920;28;20058;-74
2022/11/13 22:21:37;;;;;;;70.72;32.58;;;;;;;5.44;100.00;101821.00;4944644;28;20042;-74
2022/11/13 22:24:03;;;;;;;70.70;32.92;;;;;;;5.27;100.00;101815.34;4943552;28;20023;-74
2022/11/13 22:26:30;;;;;;;66.80;32.53;;;;;;;5.75;100.00;101831.22;4946586;29;20114;-75
2022/11/13 22:28:57;;;;;;;59.83;30.52;;;;;;;5.47;100.00;101814.78;4943226;28;20467;-74
2022/11/13 22:31:25;;;;;;;60.35;28.92;;;;;;;5.45;100.00;101816.25;4942602;29;20039;-73
2022/11/13 22:33:50;;;;;;;62.67;30.00;;;;;;;5.26;100.00;101816.50;4944244;28;20486;-74
2022/11/13 22:36:19;;;;;;;69.38;32.42;;;;;;;5.29;100.00;101829.72;4929775;29;20034;-74
2022/11/13 22:38:45;;;;;;;68.30;32.90;;;;;;;5.36;100.00;101821.75;4943998;29;20031;-75
2022/11/13 22:41:30;;;;;;;65.38;30.33;;;;;;;5.44;100.00;101814.59;4929798;29;20031;-75
2022/11/13 22:44:09;;;;;;;64.82;30.30;;;;;;;5.15;100.00;101815.13;4947441;29;20031;-74
2022/11/13 22:46:35;;;;;;;65.80;29.88;;;;;;;4.98;100.00;101810.31;4936889;29;20053;-75
2022/11/13 22:49:01;;;;;;;69.32;31.45;;;;;;;5.35;100.00;101811.78;4934350;29;20443;-74
2022/11/13 22:51:29;;;;;;;65.32;29.88;;;;;;;5.35;100.00;101811.78;4946500;29;20503;-75
2022/11/13 22:54:00;;;;;;;66.32;29.73;;;;;;;5.37;100.00;101809.50;4946884;29;20050;-74
2022/11/13 22:56:27;;;;;;;57.85;30.02;;;;;;;5.75;100.00;101800.66;4951735;29;20578;-74
2022/11/13 22:58:54;;;;;;;62.67;31.02;;;;;;;5.52;100.00;101799.13;4947533;29;20530;-74
2022/11/13 23:01:26;;;;;;;68.75;32.78;;;;;;;5.37;100.00;101792.84;4927456;29;20031;-75
2022/11/13 23:03:52;;;;;;;60.05;31.13;;;;;;;5.45;100.00;101794.84;4951764;28;20037;-74
2022/11/13 23:06:20;;;;;;;57.60;29.02;;;;;;;5.61;100.00;101786.09;4930692;29;20030;-74
2022/11/13 23:08:47;;;;;;;62.22;29.10;;;;;;;5.25;100.00;101790.69;4945323;29;20493;-74
2022/11/13 23:11:18;;;;;;;58.20;29.00;;;;;;;5.35;100.00;101778.47;4925019;29;20038;-74
2022/11/13 23:13:46;;;;;;;61.85;28.23;;;;;;;5.56;100.00;101778.72;4943453;29;20066;-75
2022/11/13 23:16:12;;;;;;;60.28;28.92;;;;;;;5.48;100.00;101773.94;4944724;28;20794;-74
2022/11/13 23:18:38;;;;;;;65.95;29.88;;;;;;;5.48;100.00;101762.84;4941490;29;20114;-74
2022/11/13 23:21:04;;;;;;;63.60;30.30;;;;;;;5.64;100.00;101763.22;4939428;28;20368;-74
2022/11/13 23:23:30;;;;;;;62.70;30.02;;;;;;;5.46;100.00;101754.00;4938136;29;20118;-75
2022/11/13 23:25:55;;;;;;;65.15;29.05;;;;;;;5.56;100.00;101755.69;4924167;28;20027;-75
2022/11/13 23:28:21;;;;;;;66.32;31.20;;;;;;;5.56;100.00;101756.50;4940611;29;20042;-74
2022/11/13 23:30:46;;;;;;;57.35;26.95;;;;;;;5.60;100.00;101759.44;4942490;28;20508;-75
2022/11/13 23:33:12;;;;;;;63.95;28.45;;;;;;;5.60;100.00;101753.91;4944905;29;20023;-74
2022/11/13 23:35:37;;;;;;;62.03;28.80;;;;;;;5.40;100.00;101745.03;4946026;29;20904;-75
2022/11/13 23:38:02;;;;;;;62.47;28.02;;;;;;;5.25;100.00;101745.47;4945677;28;20506;-75
2022/11/13 23:40:28;;;;;;;62.83;28.85;;;;;;;5.19;100.00;101741.19;4943732;29;20118;-74
2022/11/13 23:42:53;;;;;;;61.65;28.38;;;;;;;5.39;100.00;101739.78;4945092;28;20077;-75
2022/11/13 23:45:18;;;;;;;72.80;28.55;;;;;;;5.63;100.00;101751.31;4944046;28;20459;-74
2022/11/13 23:47:43;;;;;;;61.78;29.27;;;;;;;5.48;100.00;101735.06;4942398;29;20031;-74
2022/11/13 23:50:09;;;;;;;61.15;29.42;;;;;;;5.57;100.00;101735.13;4936664;29;20039;-74
2022/11/13 23:52:35;;;;;;;63.35;26.42;;;;;;;5.49;100.00;101734.75;4943264;29;20039;-74
2022/11/13 23:55:00;;;;;;;65.80;28.63;;;;;;;5.52;100.00;101746.34;4945086;28;20070;-75
2022/11/13 23:57:26;;;;;;;73.80;30.75;;;;;;;5.54;100.00;101741.31;4939326;29;20070;-75
2022/11/13 23:59:51;;;;;;;60.63;28.83;;;;;;;5.62;100.00;101741.31;4940006;28;20542;-74
